createdAt,value
2023-03-17T00:00:53.972Z,100522.91
2023-03-17T00:03:29.415Z,100476.56
2023-03-17T00:06:01.452Z,100520.50
2023-03-17T00:08:34.274Z,100530.16
2023-03-17T00:11:04.477Z,100486.13
2023-03-17T00:13:34.110Z,100503.94
2023-03-17T00:16:07.572Z,100483.59
2023-03-17T00:18:40.312Z,100510.47
2023-03-17T00:21:14.847Z,100509.28
2023-03-17T00:23:46.373Z,100522.03
2023-03-17T00:26:16.212Z,100527.09
2023-03-17T00:28:46.213Z,100520.50
2023-03-17T00:31:18.938Z,100488.50
2023-03-17T00:33:54.123Z,100525.50
2023-03-17T00:36:26.599Z,100510.69
2023-03-17T00:38:57.367Z,100514.34
2023-03-17T00:41:29.585Z,100526.50
2023-03-17T00:43:59.359Z,100526.38
2023-03-17T00:46:35.984Z,100502.41
2023-03-17T00:51:46.008Z,100495.22
2023-03-17T00:54:19.500Z,100500.94
2023-03-17T00:56:50.930Z,100512.88
2023-03-17T00:59:29.824Z,100517.34
2023-03-17T01:02:00.412Z,100486.31
2023-03-17T01:04:34.010Z,100508.72
2023-03-17T01:07:04.204Z,100479.44
2023-03-17T01:09:35.021Z,100509.59
2023-03-17T01:12:04.705Z,100506.09
2023-03-17T01:14:37.887Z,100481.44
2023-03-17T01:17:12.879Z,100459.56
2023-03-17T01:19:45.461Z,100470.13
2023-03-17T01:22:15.502Z,100477.19
2023-03-17T01:24:45.144Z,100431.81
2023-03-17T01:27:16.117Z,100443.81
2023-03-17T01:29:46.222Z,100457.66
2023-03-17T01:32:16.360Z,100454.09
2023-03-17T01:34:48.643Z,100467.09
2023-03-17T01:37:18.277Z,100473.13
2023-03-17T01:39:47.900Z,100473.53
2023-03-17T01:42:17.706Z,100487.44
2023-03-17T01:45:03.113Z,100462.53
2023-03-17T01:47:33.239Z,100485.00
2023-03-17T01:50:09.934Z,100473.19
2023-03-17T01:52:41.577Z,100501.53
2023-03-17T01:55:14.864Z,100504.81
2023-03-17T01:57:50.855Z,100468.59
2023-03-17T02:00:23.605Z,100489.22
2023-03-17T02:02:57.444Z,100499.75
2023-03-17T02:05:33.397Z,100455.00
2023-03-17T02:08:03.224Z,100463.97
2023-03-17T02:10:33.596Z,100476.53
2023-03-17T02:13:05.885Z,100459.19
2023-03-17T02:15:40.796Z,100487.19
2023-03-17T02:18:11.705Z,100492.03
2023-03-17T02:21:16.878Z,100472.13
2023-03-17T02:23:49.905Z,100496.25
2023-03-17T02:26:21.071Z,100477.53
2023-03-17T02:28:50.720Z,100475.06
2023-03-17T02:31:21.969Z,100455.53
2023-03-17T02:33:54.299Z,100478.47
2023-03-17T02:36:24.725Z,100469.91
2023-03-17T02:38:57.602Z,100453.06
2023-03-17T02:41:27.528Z,100470.34
2023-03-17T02:43:57.179Z,100474.09
2023-03-17T02:46:27.213Z,100463.59
2023-03-17T02:48:57.793Z,100474.84
2023-03-17T02:51:27.433Z,100480.00
2023-03-17T02:53:59.710Z,100476.66
2023-03-17T02:56:29.505Z,100474.63
2023-03-17T02:58:59.132Z,100484.34
2023-03-17T03:01:29.562Z,100470.66
2023-03-17T03:03:59.364Z,100477.16
2023-03-17T03:06:29.116Z,100454.22
2023-03-17T03:09:01.427Z,100446.66
2023-03-17T03:11:31.066Z,100478.28
2023-03-17T03:14:00.701Z,100444.06
2023-03-17T03:16:30.581Z,100463.06
2023-03-17T03:19:00.226Z,100458.72
2023-03-17T03:21:31.661Z,100434.59
2023-03-17T03:24:04.113Z,100450.56
2023-03-17T03:26:33.882Z,100457.25
2023-03-17T03:29:03.580Z,100454.28
2023-03-17T03:31:33.217Z,100389.06
2023-03-17T03:34:02.847Z,100428.34
2023-03-17T03:36:32.498Z,100419.25
2023-03-17T03:39:04.713Z,100420.34
2023-03-17T03:41:34.463Z,100393.94
2023-03-17T03:44:04.143Z,100417.13
2023-03-17T03:46:33.933Z,100404.81
2023-03-17T03:49:03.651Z,100411.75
2023-03-17T03:51:33.340Z,100414.41
2023-03-17T03:54:06.346Z,100382.78
2023-03-17T03:56:36.050Z,100401.72
2023-03-17T03:59:06.228Z,100400.03
2023-03-17T04:01:36.048Z,100408.72
2023-03-17T04:04:05.828Z,100397.72
2023-03-17T04:06:35.452Z,100400.97
2023-03-17T04:09:09.286Z,100406.97
2023-03-17T04:11:38.942Z,100395.09
2023-03-17T04:14:09.119Z,100365.78
2023-03-17T04:16:39.043Z,100393.41
2023-03-17T04:19:09.898Z,100392.28
2023-03-17T04:21:39.972Z,100389.59
2023-03-17T04:24:12.657Z,100356.16
2023-03-17T04:26:42.358Z,100385.28
2023-03-17T04:29:15.696Z,100358.63
2023-03-17T04:31:45.381Z,100390.56
2023-03-17T04:34:18.744Z,100370.03
2023-03-17T04:36:49.956Z,100392.41
2023-03-17T04:39:22.301Z,100365.88
2023-03-17T04:41:51.966Z,100384.91
2023-03-17T04:44:21.626Z,100390.75
2023-03-17T04:46:51.667Z,100370.09
2023-03-17T04:49:21.981Z,100378.41
2023-03-17T04:51:51.629Z,100379.38
2023-03-17T04:54:24.130Z,100376.19
2023-03-17T04:56:53.925Z,100371.13
2023-03-17T04:59:23.593Z,100373.66
2023-03-17T05:01:54.018Z,100371.72
2023-03-17T05:04:31.070Z,100393.41
2023-03-17T05:07:01.282Z,100380.00
2023-03-17T05:09:33.599Z,100380.66
2023-03-17T05:12:03.236Z,100372.19
2023-03-17T05:14:33.233Z,100379.81
2023-03-17T05:17:02.857Z,100312.75
2023-03-17T05:19:32.473Z,100371.28
2023-03-17T05:22:02.177Z,100348.13
2023-03-17T05:24:34.448Z,100371.28
2023-03-17T05:27:04.056Z,100382.91
2023-03-17T05:29:33.807Z,100383.03
2023-03-17T05:32:03.443Z,100364.22
2023-03-17T05:34:33.609Z,100373.81
2023-03-17T05:37:03.466Z,100347.19
2023-03-17T05:39:36.031Z,100339.19
2023-03-17T05:42:06.277Z,100364.47
2023-03-17T05:44:36.249Z,100362.91
2023-03-17T05:47:05.928Z,100366.75
2023-03-17T05:49:35.763Z,100371.03
2023-03-17T05:52:05.715Z,100349.47
2023-03-17T05:54:38.203Z,100378.16
2023-03-17T05:57:07.884Z,100388.31
2023-03-17T05:59:37.570Z,100384.81
2023-03-17T06:02:07.303Z,100383.81
2023-03-17T06:04:37.019Z,100388.31
2023-03-17T06:07:07.844Z,100354.69
2023-03-17T06:09:40.141Z,100358.81
2023-03-17T06:12:11.052Z,100342.91
2023-03-17T06:14:40.778Z,100360.63
2023-03-17T06:17:12.563Z,100363.03
2023-03-17T06:19:42.776Z,100296.16
2023-03-17T06:22:12.577Z,100323.44
2023-03-17T06:24:44.794Z,100329.63
2023-03-17T06:27:14.645Z,100345.09
2023-03-17T06:29:44.257Z,100334.28
2023-03-17T06:32:20.725Z,100359.34
2023-03-17T06:34:51.909Z,100355.69
2023-03-17T06:37:21.517Z,100368.03
2023-03-17T06:39:53.900Z,100340.75
2023-03-17T06:42:23.616Z,100363.81
2023-03-17T06:44:53.970Z,100352.66
2023-03-17T06:47:25.974Z,100355.34
2023-03-17T06:49:56.329Z,100309.03
2023-03-17T06:52:26.582Z,100352.69
2023-03-17T06:54:58.785Z,100352.31
2023-03-17T06:57:28.404Z,100315.31
2023-03-17T06:59:58.037Z,100330.06
2023-03-17T07:02:28.098Z,100327.84
2023-03-17T07:04:58.270Z,100349.53
2023-03-17T07:07:28.093Z,100319.59
2023-03-17T07:10:00.376Z,100324.13
2023-03-17T07:12:30.015Z,100336.28
2023-03-17T07:15:00.174Z,100310.50
2023-03-17T07:17:30.192Z,100324.09
2023-03-17T07:20:00.203Z,100329.41
2023-03-17T07:22:30.294Z,100341.84
2023-03-17T07:25:02.620Z,100380.53
2023-03-17T07:27:32.282Z,100368.84
2023-03-17T07:30:04.437Z,100345.72
2023-03-17T07:32:35.565Z,100364.38
2023-03-17T07:35:05.272Z,100359.75
2023-03-17T07:37:35.009Z,100361.72
2023-03-17T07:40:09.283Z,100348.31
2023-03-17T07:42:39.116Z,100351.94
2023-03-17T07:45:10.320Z,100327.09
2023-03-17T07:47:41.688Z,100272.13
2023-03-17T07:50:12.441Z,100309.03
2023-03-17T07:52:42.246Z,100344.34
2023-03-17T07:55:15.990Z,100321.53
2023-03-17T07:57:46.274Z,100351.63
2023-03-17T08:00:17.651Z,100334.38
2023-03-17T08:02:59.600Z,100363.03
2023-03-17T08:05:37.082Z,100320.47
2023-03-17T08:08:07.616Z,100360.09
2023-03-17T08:10:39.904Z,100360.28
2023-03-17T08:13:09.598Z,100313.59
2023-03-17T08:15:39.484Z,100302.31
2023-03-17T08:18:09.625Z,100349.63
2023-03-17T08:20:39.452Z,100357.16
2023-03-17T08:23:09.099Z,100332.50
2023-03-17T08:25:41.423Z,100350.94
2023-03-17T08:28:11.124Z,100317.47
2023-03-17T08:30:41.837Z,100349.34
2023-03-17T08:33:11.773Z,100347.75
2023-03-17T08:35:43.752Z,100321.34
2023-03-17T08:38:13.938Z,100320.34
2023-03-17T08:40:46.194Z,100298.03
2023-03-17T08:43:16.524Z,100353.97
2023-03-17T08:45:46.245Z,100304.34
2023-03-17T08:48:15.968Z,100350.78
2023-03-17T08:50:46.065Z,100363.06
2023-03-17T08:53:15.721Z,100359.69
2023-03-17T08:55:47.942Z,100362.38
2023-03-17T08:58:19.772Z,100354.72
2023-03-17T09:00:50.126Z,100358.06
2023-03-17T09:03:20.838Z,100356.38
2023-03-17T09:05:51.590Z,100351.31
2023-03-17T09:08:21.301Z,100307.75
2023-03-17T09:10:54.376Z,100325.91
2023-03-17T09:13:24.411Z,100350.09
2023-03-17T09:15:54.384Z,100344.16
2023-03-17T09:18:24.038Z,100327.72
2023-03-17T09:20:53.716Z,100326.84
2023-03-17T09:23:23.608Z,100294.19
2023-03-17T09:25:55.978Z,100322.53
2023-03-17T09:28:26.298Z,100320.00
2023-03-17T09:31:01.410Z,100320.16
2023-03-17T09:33:32.093Z,100330.41
2023-03-17T09:36:02.217Z,100340.84
2023-03-17T09:38:31.917Z,100335.78
2023-03-17T09:41:26.201Z,100317.81
2023-03-17T09:44:03.459Z,100301.59
2023-03-17T09:46:47.283Z,100294.94
2023-03-17T09:49:22.870Z,100359.13
2023-03-17T09:51:53.309Z,100330.91
2023-03-17T09:54:29.316Z,100333.63
2023-03-17T09:57:09.399Z,100320.81
2023-03-17T09:59:43.891Z,100348.28
2023-03-17T10:02:21.329Z,100358.69
2023-03-17T10:04:51.907Z,100377.53
2023-03-17T10:07:27.274Z,100386.06
2023-03-17T10:10:03.769Z,100370.69
2023-03-17T10:12:46.250Z,100379.28
2023-03-17T10:15:24.209Z,100374.22
2023-03-17T10:17:54.751Z,100377.66
2023-03-17T10:20:30.192Z,100376.81
2023-03-17T10:23:04.304Z,100357.13
2023-03-17T10:25:36.679Z,100353.72
2023-03-17T10:28:15.093Z,100352.03
2023-03-17T10:30:44.908Z,100363.16
2023-03-17T10:33:14.918Z,100337.50
2023-03-17T10:35:45.109Z,100216.03
2023-03-17T10:38:18.999Z,100329.00
2023-03-17T10:40:57.161Z,100343.53
2023-03-17T10:43:32.377Z,100346.97
2023-03-17T10:46:04.391Z,100332.38
2023-03-17T10:48:39.149Z,100320.41
2023-03-17T10:51:11.425Z,100328.09
2023-03-17T10:53:43.455Z,100316.97
2023-03-17T10:56:20.911Z,100325.50
2023-03-17T10:58:55.582Z,100318.63
2023-03-17T11:01:31.278Z,100319.53
2023-03-17T11:04:02.831Z,100313.50
2023-03-17T11:06:36.559Z,100325.47
2023-03-17T11:09:12.552Z,100327.19
2023-03-17T11:11:47.504Z,100331.44
2023-03-17T11:14:22.405Z,100310.00
2023-03-17T11:16:56.924Z,100302.25
2023-03-17T11:19:41.195Z,100326.19
2023-03-17T11:22:15.912Z,100283.41
2023-03-17T11:24:59.766Z,100314.94
2023-03-17T11:27:34.353Z,100313.19
2023-03-17T11:30:28.002Z,100321.78
2023-03-17T11:33:01.748Z,100327.78
2023-03-17T11:35:53.245Z,100331.16
2023-03-17T11:38:26.212Z,100322.47
2023-03-17T11:41:35.797Z,100337.81
2023-03-17T11:44:55.249Z,100321.53
2023-03-17T11:47:42.887Z,100307.72
2023-03-17T11:50:24.895Z,100311.19
2023-03-17T11:53:13.270Z,100308.63
2023-03-17T11:55:48.487Z,100286.38
2023-03-17T11:58:28.742Z,100271.78
2023-03-17T12:01:00.931Z,100264.00
2023-03-17T12:03:40.449Z,100261.44
2023-03-17T12:06:19.796Z,100278.56
2023-03-17T12:08:53.553Z,100281.19
2023-03-17T12:11:30.158Z,100292.28
2023-03-17T12:14:04.917Z,100287.94
2023-03-17T12:16:40.694Z,100292.91
2023-03-17T12:19:20.703Z,100265.44
2023-03-17T12:21:55.745Z,100278.25
2023-03-17T12:24:34.486Z,100288.34
2023-03-17T12:27:08.631Z,100291.56
2023-03-17T12:29:47.482Z,100286.25
2023-03-17T12:32:23.739Z,100270.97
2023-03-17T12:34:59.733Z,100259.03
2023-03-17T12:37:30.914Z,100282.03
2023-03-17T12:40:07.208Z,100274.34
2023-03-17T12:42:45.731Z,100269.97
2023-03-17T12:45:37.327Z,100267.38
2023-03-17T12:48:24.516Z,100282.84
2023-03-17T12:51:22.734Z,100285.44
2023-03-17T12:53:53.123Z,100282.16
2023-03-17T12:56:27.447Z,100244.69
2023-03-17T12:59:02.968Z,100270.97
2023-03-17T13:01:36.098Z,100252.88
2023-03-17T13:04:19.590Z,100279.16
2023-03-17T13:07:02.806Z,100259.31
2023-03-17T13:09:45.405Z,100234.47
2023-03-17T13:12:53.730Z,100270.06
2023-03-17T13:15:26.810Z,100227.44
2023-03-17T13:18:33.494Z,100268.25
2023-03-17T13:21:15.377Z,100249.72
2023-03-17T13:23:49.758Z,100257.22
2023-03-17T13:26:22.466Z,100262.22
2023-03-17T13:28:53.734Z,100256.06
2023-03-17T13:31:38.508Z,100209.97
2023-03-17T13:34:19.529Z,100230.59
2023-03-17T13:37:05.576Z,100244.44
2023-03-17T13:40:00.028Z,100246.06
2023-03-17T13:42:46.910Z,100225.59
2023-03-17T13:45:28.619Z,100242.56
2023-03-17T13:48:34.737Z,100237.22
2023-03-17T13:51:15.303Z,100218.56
2023-03-17T13:53:49.773Z,100236.28
2023-03-17T13:56:27.970Z,100227.75
2023-03-17T13:59:10.458Z,100193.63
2023-03-17T14:01:44.040Z,100235.66
2023-03-17T14:04:24.156Z,100225.97
2023-03-17T14:06:57.283Z,100208.91
2023-03-17T14:09:37.844Z,100200.22
2023-03-17T14:12:16.065Z,100230.09
2023-03-17T14:14:55.457Z,100231.09
2023-03-17T14:17:28.474Z,100220.16
2023-03-17T14:20:24.214Z,100165.56
2023-03-17T14:22:57.890Z,100198.94
2023-03-17T14:25:30.196Z,100199.63
2023-03-17T14:28:02.830Z,100162.22
2023-03-17T14:30:36.186Z,100208.22
2023-03-17T14:33:08.895Z,100174.09
2023-03-17T14:35:42.387Z,100193.47
2023-03-17T14:38:22.131Z,100185.78
2023-03-17T14:40:52.666Z,100170.31
2023-03-17T14:43:25.701Z,100196.75
2023-03-17T14:46:01.603Z,100179.59
2023-03-17T14:48:34.952Z,100213.59
2023-03-17T14:51:08.005Z,100195.56
2023-03-17T14:53:41.697Z,100188.91
2023-03-17T14:56:12.151Z,100150.81
2023-03-17T14:58:47.952Z,100176.25
2023-03-17T15:01:20.152Z,100172.84
2023-03-17T15:03:59.067Z,100179.03
2023-03-17T15:06:30.652Z,100180.81
2023-03-17T15:09:02.825Z,100163.00
2023-03-17T15:11:41.724Z,100182.59
2023-03-17T15:14:21.556Z,100187.03
2023-03-17T15:16:53.997Z,100182.19
2023-03-17T15:19:28.898Z,100190.97
2023-03-17T15:22:00.593Z,100199.63
2023-03-17T15:24:44.187Z,100198.00
2023-03-17T15:27:17.936Z,100192.06
2023-03-17T15:29:50.174Z,100193.81
2023-03-17T15:32:21.431Z,100173.47
2023-03-17T15:34:52.259Z,100181.97
2023-03-17T15:37:24.255Z,100159.03
2023-03-17T15:39:55.858Z,100132.78
2023-03-17T15:42:28.893Z,100167.63
2023-03-17T15:45:02.770Z,100179.78
2023-03-17T15:47:35.424Z,100173.09
2023-03-17T15:50:15.796Z,100183.28
2023-03-17T15:52:46.379Z,100173.00
2023-03-17T15:55:23.650Z,100180.78
2023-03-17T15:57:56.561Z,100161.88
2023-03-17T16:00:31.736Z,100163.50
2023-03-17T16:03:07.164Z,100160.94
2023-03-17T16:05:38.823Z,100157.72
2023-03-17T16:08:09.440Z,100128.84
2023-03-17T16:10:39.062Z,100146.75
2023-03-17T16:13:09.577Z,100173.19
2023-03-17T16:15:44.274Z,100160.41
2023-03-17T16:18:18.247Z,100167.19
2023-03-17T16:20:50.125Z,100171.56
2023-03-17T16:23:21.938Z,100172.59
2023-03-17T16:25:53.964Z,100162.41
2023-03-17T16:28:27.300Z,100150.41
2023-03-17T16:31:01.818Z,100164.09
2023-03-17T16:33:34.089Z,100144.59
2023-03-17T16:36:04.031Z,100152.41
2023-03-17T16:38:36.243Z,100150.72
2023-03-17T16:41:11.067Z,100166.03
2023-03-17T16:43:40.980Z,100081.53
2023-03-17T16:46:15.058Z,100157.53
2023-03-17T16:48:44.717Z,100148.19
2023-03-17T16:51:14.329Z,100168.72
2023-03-17T16:53:44.007Z,100139.72
2023-03-17T16:56:18.717Z,100144.03
2023-03-17T16:58:49.562Z,100196.97
2023-03-17T17:01:24.460Z,100192.72
2023-03-17T17:03:54.533Z,100203.00
2023-03-17T17:06:26.135Z,100173.16
2023-03-17T17:08:55.876Z,100161.25
2023-03-17T17:11:25.502Z,100176.53
2023-03-17T17:13:55.642Z,100211.53
2023-03-17T17:16:31.532Z,100193.47
2023-03-17T17:19:02.874Z,100198.59
2023-03-17T17:21:33.985Z,100214.84
2023-03-17T17:24:03.654Z,100179.03
2023-03-17T17:26:33.255Z,100221.69
2023-03-17T17:29:02.878Z,100218.28
2023-03-17T17:31:35.247Z,100190.03
2023-03-17T17:34:04.925Z,100213.13
2023-03-17T17:36:35.325Z,100190.13
2023-03-17T17:39:06.901Z,100197.00
2023-03-17T17:41:37.147Z,100177.44
2023-03-17T17:44:06.857Z,100242.47
2023-03-17T17:46:39.246Z,100231.47
2023-03-17T17:49:09.053Z,100222.84
2023-03-17T17:51:38.669Z,100210.13
2023-03-17T17:54:10.303Z,100246.06
2023-03-17T17:56:46.766Z,100191.34
2023-03-17T17:59:17.258Z,100248.63
2023-03-17T18:01:49.425Z,100249.47
2023-03-17T18:04:19.541Z,100199.91
2023-03-17T18:06:50.047Z,100225.53
2023-03-17T18:09:20.645Z,100228.06
2023-03-17T18:11:50.327Z,100172.53
2023-03-17T18:14:21.013Z,100207.53
2023-03-17T18:16:54.277Z,100199.88
2023-03-17T18:19:24.605Z,100182.78
2023-03-17T18:21:54.317Z,100203.31
2023-03-17T18:24:24.196Z,100171.69
2023-03-17T18:26:53.874Z,100175.94
2023-03-17T18:29:23.508Z,100194.75
2023-03-17T18:31:57.427Z,100207.59
2023-03-17T18:34:32.074Z,100226.38
2023-03-17T18:37:04.116Z,100222.94
2023-03-17T18:39:34.848Z,100199.91
2023-03-17T18:42:05.397Z,100207.53
2023-03-17T18:44:35.067Z,100176.72
2023-03-17T18:47:07.497Z,100178.38
2023-03-17T18:49:37.745Z,100172.34
2023-03-17T18:52:07.434Z,100168.09
2023-03-17T18:54:37.626Z,100166.41
2023-03-17T18:57:07.308Z,100216.84
2023-03-17T18:59:37.992Z,100189.56
2023-03-17T19:02:11.692Z,100192.13
2023-03-17T19:04:46.144Z,100195.53
2023-03-17T19:07:16.486Z,100218.59
2023-03-17T19:09:46.692Z,100214.38
2023-03-17T19:12:16.934Z,100204.94
2023-03-17T19:14:46.577Z,100200.69
2023-03-17T19:17:19.277Z,100206.69
2023-03-17T19:19:50.369Z,100212.63
2023-03-17T19:22:20.025Z,100218.63
2023-03-17T19:24:50.344Z,100215.19
2023-03-17T19:27:20.733Z,100193.88
2023-03-17T19:29:51.091Z,100195.56
2023-03-17T19:32:23.342Z,100197.28
2023-03-17T19:34:53.599Z,100176.81
2023-03-17T19:37:23.833Z,100194.75
2023-03-17T19:39:53.509Z,100185.34
2023-03-17T19:42:23.178Z,100141.78
2023-03-17T19:44:53.286Z,100132.38
2023-03-17T19:47:25.758Z,100157.19
2023-03-17T19:49:55.388Z,100173.41
2023-03-17T19:52:27.824Z,100144.34
2023-03-17T19:54:58.695Z,100169.97
2023-03-17T19:57:28.497Z,100169.13
2023-03-17T19:59:58.205Z,100200.72
2023-03-17T20:02:30.435Z,100187.84
2023-03-17T20:05:00.392Z,100221.97
2023-03-17T20:07:30.180Z,100223.66
2023-03-17T20:09:59.820Z,100254.44
2023-03-17T20:12:29.502Z,100249.31
2023-03-17T20:15:00.205Z,100233.94
2023-03-17T20:17:32.631Z,100189.41
2023-03-17T20:20:03.718Z,100177.47
2023-03-17T20:22:33.578Z,100205.63
2023-03-17T20:25:03.278Z,100179.94
2023-03-17T20:27:35.903Z,100214.19
2023-03-17T20:30:07.362Z,100192.88
2023-03-17T20:32:39.851Z,100197.94
2023-03-17T20:35:10.539Z,100214.16
2023-03-17T20:37:40.219Z,100220.09
2023-03-17T20:40:11.471Z,100212.47
2023-03-17T20:42:41.642Z,100225.34
2023-03-17T20:45:11.585Z,100239.91
2023-03-17T20:47:43.818Z,100229.69
2023-03-17T20:50:14.847Z,100210.91
2023-03-17T20:52:45.705Z,100221.19
2023-03-17T20:55:16.537Z,100203.25
2023-03-17T20:57:48.698Z,100216.94
2023-03-17T21:00:21.316Z,100187.88
2023-03-17T21:02:53.888Z,100188.72
2023-03-17T21:05:27.072Z,100219.50
2023-03-17T21:07:57.672Z,100185.28
2023-03-17T21:10:27.455Z,100193.84
2023-03-17T21:12:57.356Z,100218.66
2023-03-17T21:15:27.146Z,100235.72
2023-03-17T21:17:59.411Z,100211.78
2023-03-17T21:20:29.551Z,100182.78
2023-03-17T21:23:00.445Z,100167.38
2023-03-17T21:25:30.291Z,100228.91
2023-03-17T21:28:00.196Z,100190.47
2023-03-17T21:30:30.472Z,100204.09
2023-03-17T21:33:03.300Z,100242.63
2023-03-17T21:35:35.540Z,100229.78
2023-03-17T21:38:05.229Z,100232.38
2023-03-17T21:40:35.298Z,100230.63
2023-03-17T21:43:05.769Z,100198.16
2023-03-17T21:45:35.783Z,100200.72
2023-03-17T21:48:08.143Z,100220.41
2023-03-17T21:50:38.573Z,100238.31
2023-03-17T21:53:09.309Z,100246.88
2023-03-17T21:55:39.480Z,100224.63
2023-03-17T21:58:09.184Z,100257.09
2023-03-17T22:00:45.244Z,100251.97
2023-03-17T22:03:18.399Z,100259.69
2023-03-17T22:05:48.467Z,100252.81
2023-03-17T22:08:18.390Z,100231.41
2023-03-17T22:10:48.099Z,100215.16
2023-03-17T22:13:17.773Z,100275.88
2023-03-17T22:15:47.682Z,100266.44
2023-03-17T22:18:20.045Z,100242.47
2023-03-17T22:20:50.478Z,100203.94
2023-03-17T22:23:20.634Z,100262.94
2023-03-17T22:25:50.737Z,100226.19
2023-03-17T22:28:21.031Z,100280.94
2023-03-17T22:30:51.015Z,100258.72
2023-03-17T22:33:23.370Z,100207.41
2023-03-17T22:35:53.110Z,100274.13
2023-03-17T22:38:24.861Z,100263.84
2023-03-17T22:41:03.742Z,100277.56
2023-03-17T22:43:33.415Z,100254.47
2023-03-17T22:46:03.243Z,100283.53
2023-03-17T22:48:36.071Z,100291.25
2023-03-17T22:51:07.267Z,100281.84
2023-03-17T22:53:37.791Z,100223.66
2023-03-17T22:56:08.582Z,100274.16
2023-03-17T22:58:38.588Z,100222.81
2023-03-17T23:01:09.152Z,100263.84
2023-03-17T23:03:42.132Z,100277.53
2023-03-17T23:06:13.241Z,100216.78
2023-03-17T23:08:45.846Z,100227.03
2023-03-17T23:11:22.250Z,100250.16
2023-03-17T23:13:53.047Z,100269.81
2023-03-17T23:16:23.299Z,100278.38
2023-03-17T23:18:55.716Z,100259.56
2023-03-17T23:21:28.601Z,100249.28
2023-03-17T23:23:58.552Z,100286.88
2023-03-17T23:26:28.427Z,100277.44
2023-03-17T23:28:58.103Z,100261.16
2023-03-17T23:31:27.758Z,100270.53
2023-03-17T23:33:59.985Z,100287.63
2023-03-17T23:36:29.860Z,100294.44
2023-03-17T23:38:59.502Z,100287.59
2023-03-17T23:41:29.474Z,100253.38
2023-03-17T23:43:59.062Z,100267.84
2023-03-17T23:46:29.106Z,100275.56
2023-03-17T23:49:01.483Z,100278.94
2023-03-17T23:51:31.544Z,100233.56
2023-03-17T23:54:01.171Z,100270.41
2023-03-17T23:56:30.863Z,100250.75
2023-03-17T23:59:00.504Z,100273.88
